sensor_id;sensor_type;location;lat;lon;timestamp;pressure;altitude;pressure_sealevel;temperature;humidity
7168;BME280;3625;51.762;14.320;2023-02-12T00:02:25;102411.16;;;7.05;100.00
7168;BME280;3625;51.762;14.320;2023-02-12T00:05:06;102417.38;;;7.07;100.00
7168;BME280;3625;51.762;14.320;2023-02-12T00:08:12;102417.28;;;7.04;100.00
7168;BME280;3625;51.762;14.320;2023-02-12T00:10:49;102413.84;;;7.07;100.00
7168;BME280;3625;51.762;14.320;2023-02-12T00:13:19;102422.50;;;7.03;100.00
7168;BME280;3625;51.762;14.320;2023-02-12T00:16:08;102415.50;;;7.03;100.00
7168;BME280;3625;51.762;14.320;2023-02-12T00:18:59;102197.72;;;5.79;100.00
7168;BME280;3625;51.762;14.320;2023-02-12T00:21:31;102230.38;;;5.89;100.00
7168;BME280;3625;51.762;14.320;2023-02-12T00:24:09;102432.31;;;7.10;100.00
7168;BME280;3625;51.762;14.320;2023-02-12T00:26:41;102440.97;;;7.04;100.00
7168;BME280;3625;51.762;14.320;2023-02-12T00:29:11;102443.59;;;7.04;100.00
7168;BME280;3625;51.762;14.320;2023-02-12T00:31:40;102444.50;;;7.05;100.00
7168;BME280;3625;51.762;14.320;2023-02-12T00:34:12;102437.44;;;7.04;100.00
7168;BME280;3625;51.762;14.320;2023-02-12T00:36:46;102444.53;;;7.06;100.00
7168;BME280;3625;51.762;14.320;2023-02-12T00:39:29;102137.75;;;5.28;100.00
7168;BME280;3625;51.762;14.320;2023-02-12T00:42:04;102451.44;;;7.03;100.00
7168;BME280;3625;51.762;14.320;2023-02-12T00:44:38;102448.91;;;7.06;100.00
7168;BME280;3625;51.762;14.320;2023-02-12T00:47:25;102204.25;;;5.60;100.00
7168;BME280;3625;51.762;14.320;2023-02-12T00:50:08;102453.31;;;7.07;100.00
7168;BME280;3625;51.762;14.320;2023-02-12T00:52:53;102454.03;;;7.01;100.00
7168;BME280;3625;51.762;14.320;2023-02-12T00:55:26;102457.59;;;7.03;100.00
7168;BME280;3625;51.762;14.320;2023-02-12T00:58:20;102456.72;;;7.03;100.00
7168;BME280;3625;51.762;14.320;2023-02-12T01:00:54;102469.97;;;7.06;100.00
7168;BME280;3625;51.762;14.320;2023-02-12T01:03:29;102467.41;;;7.09;100.00
7168;BME280;3625;51.762;14.320;2023-02-12T01:05:59;102473.44;;;7.05;100.00
7168;BME280;3625;51.762;14.320;2023-02-12T01:08:31;102469.03;;;7.04;100.00
7168;BME280;3625;51.762;14.320;2023-02-12T01:11:04;102195.03;;;5.43;100.00
7168;BME280;3625;51.762;14.320;2023-02-12T01:13:36;102467.00;;;6.94;100.00
7168;BME280;3625;51.762;14.320;2023-02-12T01:16:23;102275.78;;;5.85;100.00
7168;BME280;3625;51.762;14.320;2023-02-12T01:18:57;102467.00;;;6.94;100.00
7168;BME280;3625;51.762;14.320;2023-02-12T01:21:31;102430.56;;;6.73;100.00
7168;BME280;3625;51.762;14.320;2023-02-12T01:24:08;102461.94;;;7.00;100.00
7168;BME280;3625;51.762;14.320;2023-02-12T01:27:29;102462.78;;;6.99;100.00
7168;BME280;3625;51.762;14.320;2023-02-12T01:30:13;102469.81;;;7.00;100.00
7168;BME280;3625;51.762;14.320;2023-02-12T01:32:59;102474.06;;;6.95;100.00
7168;BME280;3625;51.762;14.320;2023-02-12T01:35:28;102474.00;;;6.92;100.00
7168;BME280;3625;51.762;14.320;2023-02-12T01:38:05;102475.88;;;6.97;100.00
7168;BME280;3625;51.762;14.320;2023-02-12T01:40:45;102469.78;;;6.98;100.00
7168;BME280;3625;51.762;14.320;2023-02-12T01:43:17;102468.78;;;6.95;100.00
7168;BME280;3625;51.762;14.320;2023-02-12T01:45:51;102465.19;;;6.90;100.00
7168;BME280;3625;51.762;14.320;2023-02-12T01:48:36;102450.06;;;6.81;100.00
7168;BME280;3625;51.762;14.320;2023-02-12T01:51:07;102460.75;;;6.89;100.00
7168;BME280;3625;51.762;14.320;2023-02-12T01:53:50;102212.22;;;5.32;100.00
7168;BME280;3625;51.762;14.320;2023-02-12T01:56:32;102470.47;;;6.91;100.00
7168;BME280;3625;51.762;14.320;2023-02-12T01:59:02;102478.38;;;6.93;100.00
7168;BME280;3625;51.762;14.320;2023-02-12T02:01:33;102343.88;;;6.09;100.00
7168;BME280;3625;51.762;14.320;2023-02-12T02:04:14;102256.88;;;5.65;100.00
7168;BME280;3625;51.762;14.320;2023-02-12T02:07:04;102207.91;;;5.34;100.00
7168;BME280;3625;51.762;14.320;2023-02-12T02:09:44;102192.72;;;5.22;100.00
7168;BME280;3625;51.762;14.320;2023-02-12T02:12:17;102481.84;;;6.90;100.00
7168;BME280;3625;51.762;14.320;2023-02-12T02:15:05;102490.59;;;6.89;100.00
7168;BME280;3625;51.762;14.320;2023-02-12T02:17:50;102329.53;;;5.97;100.00
7168;BME280;3625;51.762;14.320;2023-02-12T02:21:13;102395.28;;;6.32;100.00
7168;BME280;3625;51.762;14.320;2023-02-12T02:24:35;102486.88;;;6.81;100.00
7168;BME280;3625;51.762;14.320;2023-02-12T02:27:27;102496.47;;;6.79;100.00
7168;BME280;3625;51.762;14.320;2023-02-12T02:30:32;102336.09;;;5.82;100.00
7168;BME280;3625;51.762;14.320;2023-02-12T02:33:23;102219.41;;;5.08;100.00
7168;BME280;3625;51.762;14.320;2023-02-12T02:36:14;102279.16;;;5.48;100.00
7168;BME280;3625;51.762;14.320;2023-02-12T02:39:03;102312.00;;;5.65;100.00
7168;BME280;3625;51.762;14.320;2023-02-12T02:41:43;102128.78;;;4.56;100.00
7168;BME280;3625;51.762;14.320;2023-02-12T02:44:22;102217.41;;;4.99;100.00
7168;BME280;3625;51.762;14.320;2023-02-12T02:46:53;102503.22;;;6.69;100.00
7168;BME280;3625;51.762;14.320;2023-02-12T02:49:31;102500.53;;;6.68;100.00
7168;BME280;3625;51.762;14.320;2023-02-12T02:52:09;102469.47;;;6.53;100.00
7168;BME280;3625;51.762;14.320;2023-02-12T02:54:53;102466.00;;;6.54;100.00
7168;BME280;3625;51.762;14.320;2023-02-12T02:57:35;102513.75;;;6.69;100.00
7168;BME280;3625;51.762;14.320;2023-02-12T03:00:17;102440.03;;;6.33;100.00
7168;BME280;3625;51.762;14.320;2023-02-12T03:03:05;102241.41;;;5.13;100.00
7168;BME280;3625;51.762;14.320;2023-02-12T03:05:48;102407.81;;;6.09;100.00
7168;BME280;3625;51.762;14.320;2023-02-12T03:08:58;102236.97;;;5.10;100.00
7168;BME280;3625;51.762;14.320;2023-02-12T03:11:35;102517.28;;;6.70;100.00
7168;BME280;3625;51.762;14.320;2023-02-12T03:14:22;102389.66;;;5.87;100.00
7168;BME280;3625;51.762;14.320;2023-02-12T03:17:03;102469.81;;;6.34;100.00
7168;BME280;3625;51.762;14.320;2023-02-12T03:20:07;102357.63;;;5.68;100.00
7168;BME280;3625;51.762;14.320;2023-02-12T03:23:18;102534.88;;;6.72;100.00
7168;BME280;3625;51.762;14.320;2023-02-12T03:26:30;102392.44;;;5.91;100.00
7168;BME280;3625;51.762;14.320;2023-02-12T03:29:30;102553.34;;;6.74;100.00
7168;BME280;3625;51.762;14.320;2023-02-12T06:40:19;102711.81;;;6.65;100.00
7168;BME280;3625;51.762;14.320;2023-02-12T06:42:48;102716.28;;;6.69;100.00
7168;BME280;3625;51.762;14.320;2023-02-12T06:45:33;102618.00;;;6.07;100.00
7168;BME280;3625;51.762;14.320;2023-02-12T06:48:02;102714.59;;;6.71;100.00
7168;BME280;3625;51.762;14.320;2023-02-12T06:50:33;102719.03;;;6.72;100.00
7168;BME280;3625;51.762;14.320;2023-02-12T06:53:04;102442.28;;;5.05;100.00
7168;BME280;3625;51.762;14.320;2023-02-12T06:55:54;102734.97;;;6.78;100.00
7168;BME280;3625;51.762;14.320;2023-02-12T06:58:32;102729.81;;;6.81;100.00
7168;BME280;3625;51.762;14.320;2023-02-12T07:01:13;102728.94;;;6.81;100.00
7168;BME280;3625;51.762;14.320;2023-02-12T07:03:48;102646.72;;;6.30;100.00
7168;BME280;3625;51.762;14.320;2023-02-12T07:06:20;102584.16;;;5.90;100.00
7168;BME280;3625;51.762;14.320;2023-02-12T07:08:56;102734.97;;;6.78;100.00
7168;BME280;3625;51.762;14.320;2023-02-12T07:11:32;102547.72;;;5.74;100.00
7168;BME280;3625;51.762;14.320;2023-02-12T07:14:05;102739.50;;;6.84;100.00
7168;BME280;3625;51.762;14.320;2023-02-12T07:16:36;102738.78;;;6.88;100.00
7168;BME280;3625;51.762;14.320;2023-02-12T07:19:13;102745.94;;;6.94;100.00
7168;BME280;3625;51.762;14.320;2023-02-12T07:21:43;102753.16;;;6.99;100.00
7168;BME280;3625;51.762;14.320;2023-02-12T07:24:14;102750.69;;;7.05;100.00
7168;BME280;3625;51.762;14.320;2023-02-12T07:26:51;102760.50;;;7.11;100.00
7168;BME280;3625;51.762;14.320;2023-02-12T07:29:21;102763.28;;;7.15;100.00
7168;BME280;3625;51.762;14.320;2023-02-12T07:31:53;102762.53;;;7.21;100.00
7168;BME280;3625;51.762;14.320;2023-02-12T07:34:22;102763.69;;;7.31;100.00
7168;BME280;3625;51.762;14.320;2023-02-12T07:36:51;102772.84;;;7.43;100.00
7168;BME280;3625;51.762;14.320;2023-02-12T07:39:23;102773.06;;;7.52;100.00
7168;BME280;3625;51.762;14.320;2023-02-12T07:41:55;102563.72;;;6.38;100.00
7168;BME280;3625;51.762;14.320;2023-02-12T07:44:34;102783.84;;;7.62;100.00
7168;BME280;3625;51.762;14.320;2023-02-12T07:47:04;102783.84;;;7.62;100.00
7168;BME280;3625;51.762;14.320;2023-02-12T07:49:36;102793.50;;;7.60;100.00
7168;BME280;3625;51.762;14.320;2023-02-12T07:52:08;102789.06;;;7.58;100.00
7168;BME280;3625;51.762;14.320;2023-02-12T07:54:44;102799.75;;;7.65;100.00
7168;BME280;3625;51.762;14.320;2023-02-12T07:57:18;102798.13;;;7.68;100.00
7168;BME280;3625;51.762;14.320;2023-02-12T07:59:49;102801.72;;;7.72;100.00
7168;BME280;3625;51.762;14.320;2023-02-12T08:02:54;102472.09;;;5.90;100.00
7168;BME280;3625;51.762;14.320;2023-02-12T08:05:29;102794.09;;;7.82;100.00
7168;BME280;3625;51.762;14.320;2023-02-12T08:07:59;102798.56;;;7.85;100.00
7168;BME280;3625;51.762;14.320;2023-02-12T08:10:29;102810.00;;;7.85;100.00
7168;BME280;3625;51.762;14.320;2023-02-12T08:13:14;102802.16;;;7.87;100.00
7168;BME280;3625;51.762;14.320;2023-02-12T08:16:01;102458.06;;;5.90;100.00
7168;BME280;3625;51.762;14.320;2023-02-12T08:18:34;102645.25;;;6.99;100.00
7168;BME280;3625;51.762;14.320;2023-02-12T08:21:14;102530.44;;;6.40;100.00
7168;BME280;3625;51.762;14.320;2023-02-12T08:23:51;102823.94;;;8.14;100.00
7168;BME280;3625;51.762;14.320;2023-02-12T08:26:52;102446.44;;;6.12;100.00
7168;BME280;3625;51.762;14.320;2023-02-12T08:29:49;102822.41;;;8.24;100.00
7168;BME280;3625;51.762;14.320;2023-02-12T08:32:58;102825.28;;;8.31;100.00
7168;BME280;3625;51.762;14.320;2023-02-12T08:35:36;102820.22;;;8.41;100.00
7168;BME280;3625;51.762;14.320;2023-02-12T08:38:30;102819.69;;;8.54;100.00
7168;BME280;3625;51.762;14.320;2023-02-12T08:41:27;102666.47;;;7.73;100.00
7168;BME280;3625;51.762;14.320;2023-02-12T08:45:00;102822.00;;;8.78;100.00
7168;BME280;3625;51.762;14.320;2023-02-12T08:48:41;102819.63;;;8.88;100.00
7168;BME280;3625;51.762;14.320;2023-02-12T10:00:23;102739.69;;;8.19;100.00
7168;BME280;3625;51.762;14.320;2023-02-12T10:03:02;102892.09;;;9.02;100.00
7168;BME280;3625;51.762;14.320;2023-02-12T10:05:39;102903.50;;;9.01;100.00
7168;BME280;3625;51.762;14.320;2023-02-12T10:09:05;102897.28;;;8.98;100.00
7168;BME280;3625;51.762;14.320;2023-02-12T10:11:52;102892.81;;;8.95;100.00
7168;BME280;3625;51.762;14.320;2023-02-12T10:14:54;102641.59;;;7.62;100.00
7168;BME280;3625;51.762;14.320;2023-02-12T10:17:45;102613.56;;;7.64;100.00
7168;BME280;3625;51.762;14.320;2023-02-12T10:20:43;102705.28;;;8.14;100.00
7168;BME280;3625;51.762;14.320;2023-02-12T10:23:44;102566.41;;;7.38;100.00
7168;BME280;3625;51.762;14.320;2023-02-12T10:26:42;102709.34;;;8.36;100.00
7168;BME280;3625;51.762;14.320;2023-02-12T10:29:25;102889.72;;;9.54;100.00
7168;BME280;3625;51.762;14.320;2023-02-12T10:32:15;102708.13;;;8.23;100.00
7168;BME280;3625;51.762;14.320;2023-02-12T10:34:53;102884.75;;;9.28;100.00
7168;BME280;3625;51.762;14.320;2023-02-12T10:37:41;102560.75;;;7.23;100.00
7168;BME280;3625;51.762;14.320;2023-02-12T10:40:19;102763.72;;;8.31;100.00
7168;BME280;3625;51.762;14.320;2023-02-12T10:42:53;102897.50;;;9.08;100.00
7168;BME280;3625;51.762;14.320;2023-02-12T10:45:32;102591.13;;;7.43;100.00
7168;BME280;3625;51.762;14.320;2023-02-12T10:48:07;102880.03;;;9.14;100.00
7168;BME280;3625;51.762;14.320;2023-02-12T10:51:01;102511.38;;;7.13;100.00
7168;BME280;3625;51.762;14.320;2023-02-12T10:53:42;102677.50;;;8.28;100.00
7168;BME280;3625;51.762;14.320;2023-02-12T10:56:17;102883.19;;;9.78;100.00
7168;BME280;3625;51.762;14.320;2023-02-12T10:58:56;102749.00;;;9.20;100.00
7168;BME280;3625;51.762;14.320;2023-02-12T11:01:50;102884.09;;;10.24;100.00
7168;BME280;3625;51.762;14.320;2023-02-12T11:04:28;102696.06;;;9.14;100.00
7168;BME280;3625;51.762;14.320;2023-02-12T11:07:05;102628.41;;;8.76;100.00
7168;BME280;3625;51.762;14.320;2023-02-12T11:09:42;102609.19;;;8.81;100.00
7168;BME280;3625;51.762;14.320;2023-02-12T11:12:42;102782.09;;;9.92;100.00
7168;BME280;3625;51.762;14.320;2023-02-12T11:15:34;102712.59;;;9.49;100.00
7168;BME280;3625;51.762;14.320;2023-02-12T11:18:26;102877.22;;;10.34;100.00
7168;BME280;3625;51.762;14.320;2023-02-12T11:21:06;102602.81;;;8.72;100.00
7168;BME280;3625;51.762;14.320;2023-02-12T11:23:45;102879.19;;;10.45;100.00
7168;BME280;3625;51.762;14.320;2023-02-12T11:26:28;102886.69;;;10.72;100.00
7168;BME280;3625;51.762;14.320;2023-02-12T11:29:02;102875.94;;;10.62;100.00
7168;BME280;3625;51.762;14.320;2023-02-12T11:31:42;102875.78;;;10.52;100.00
7168;BME280;3625;51.762;14.320;2023-02-12T11:34:29;102869.88;;;10.69;100.00
7168;BME280;3625;51.762;14.320;2023-02-12T11:36:59;102875.25;;;10.75;100.00
7168;BME280;3625;51.762;14.320;2023-02-12T11:39:37;102549.41;;;8.85;100.00
7168;BME280;3625;51.762;14.320;2023-02-12T11:42:17;102647.81;;;9.23;100.00
7168;BME280;3625;51.762;14.320;2023-02-12T11:44:56;102759.50;;;10.10;100.00
7168;BME280;3625;51.762;14.320;2023-02-12T11:47:34;102750.84;;;10.20;100.00
7168;BME280;3625;51.762;14.320;2023-02-12T11:50:24;102720.75;;;10.14;100.00
7168;BME280;3625;51.762;14.320;2023-02-12T11:53:22;102563.47;;;9.35;100.00
7168;BME280;3625;51.762;14.320;2023-02-12T11:56:14;102851.16;;;11.15;100.00
7168;BME280;3625;51.762;14.320;2023-02-12T11:58:47;102847.50;;;11.09;100.00
7168;BME280;3625;51.762;14.320;2023-02-12T12:01:29;102753.84;;;10.42;100.00
7168;BME280;3625;51.762;14.320;2023-02-12T12:04:20;102523.50;;;9.12;100.00
7168;BME280;3625;51.762;14.320;2023-02-12T12:06:59;102683.81;;;10.18;100.00
7168;BME280;3625;51.762;14.320;2023-02-12T12:09:41;102737.97;;;10.42;100.00
7168;BME280;3625;51.762;14.320;2023-02-12T12:12:20;102779.03;;;10.74;100.00
7168;BME280;3625;51.762;14.320;2023-02-12T12:15:14;102564.78;;;9.61;100.00
7168;BME280;3625;51.762;14.320;2023-02-12T12:18:23;102583.56;;;9.76;100.00
7168;BME280;3625;51.762;14.320;2023-02-12T12:21:35;102651.03;;;10.09;100.00
7168;BME280;3625;51.762;14.320;2023-02-12T12:24:22;102656.31;;;10.09;100.00
7168;BME280;3625;51.762;14.320;2023-02-12T12:27:39;102547.72;;;9.39;100.00
7168;BME280;3625;51.762;14.320;2023-02-12T12:31:12;102799.41;;;10.78;100.00
7168;BME280;3625;51.762;14.320;2023-02-12T12:34:15;102749.28;;;10.32;100.00
7168;BME280;3625;51.762;14.320;2023-02-12T12:37:35;102543.78;;;9.15;100.00
7168;BME280;3625;51.762;14.320;2023-02-12T12:41:02;102802.75;;;10.67;100.00
7168;BME280;3625;51.762;14.320;2023-02-12T12:44:36;102540.44;;;9.26;100.00
7168;BME280;3625;51.762;14.320;2023-02-12T12:48:30;102715.41;;;10.09;100.00
7168;BME280;3625;51.762;14.320;2023-02-12T12:51:27;102727.75;;;10.10;100.00
7168;BME280;3625;51.762;14.320;2023-02-12T12:54:36;102691.09;;;9.80;100.00
7168;BME280;3625;51.762;14.320;2023-02-12T12:57:35;102634.09;;;9.42;98.78
7168;BME280;3625;51.762;14.320;2023-02-12T13:00:52;102668.47;;;9.45;99.39
7168;BME280;3625;51.762;14.320;2023-02-12T13:04:28;102713.19;;;9.82;100.00
7168;BME280;3625;51.762;14.320;2023-02-12T13:07:12;102767.53;;;10.16;100.00
7168;BME280;3625;51.762;14.320;2023-02-12T13:10:04;102542.63;;;8.99;100.00
7168;BME280;3625;51.762;14.320;2023-02-12T13:12:59;102824.59;;;10.52;99.38
7168;BME280;3625;51.762;14.320;2023-02-12T13:16:01;102827.56;;;10.19;99.32
7168;BME280;3625;51.762;14.320;2023-02-12T13:18:50;102473.75;;;7.96;100.00
7168;BME280;3625;51.762;14.320;2023-02-12T13:21:39;102640.66;;;8.74;100.00
7168;BME280;3625;51.762;14.320;2023-02-12T13:24:28;102679.22;;;8.65;100.00
7168;BME280;3625;51.762;14.320;2023-02-12T13:27:38;102524.16;;;7.71;100.00
7168;BME280;3625;51.762;14.320;2023-02-12T13:30:21;102723.38;;;8.73;100.00
7168;BME280;3625;51.762;14.320;2023-02-12T13:33:06;102604.78;;;8.01;100.00
7168;BME280;3625;51.762;14.320;2023-02-12T13:36:14;102536.41;;;7.68;100.00
7168;BME280;3625;51.762;14.320;2023-02-12T13:38:58;102498.66;;;7.31;100.00
7168;BME280;3625;51.762;14.320;2023-02-12T13:41:39;102840.75;;;9.29;100.00
7168;BME280;3625;51.762;14.320;2023-02-12T13:44:26;102515.59;;;7.42;100.00
7168;BME280;3625;51.762;14.320;2023-02-12T13:47:38;102547.47;;;7.54;100.00
7168;BME280;3625;51.762;14.320;2023-02-12T13:50:39;102539.53;;;7.51;100.00
7168;BME280;3625;51.762;14.320;2023-02-12T13:53:53;102829.59;;;9.43;100.00
7168;BME280;3625;51.762;14.320;2023-02-12T13:56:49;102486.19;;;7.62;100.00
7168;BME280;3625;51.762;14.320;2023-02-12T13:59:47;102488.94;;;7.66;100.00
7168;BME280;3625;51.762;14.320;2023-02-12T14:02:57;102495.97;;;7.67;100.00
7168;BME280;3625;51.762;14.320;2023-02-12T14:05:32;102829.19;;;9.66;100.00
7168;BME280;3625;51.762;14.320;2023-02-12T14:08:43;102564.59;;;8.11;100.00
7168;BME280;3625;51.762;14.320;2023-02-12T14:11:57;102709.16;;;9.09;100.00
7168;BME280;3625;51.762;14.320;2023-02-12T14:14:45;102745.75;;;9.33;100.00
7168;BME280;3625;51.762;14.320;2023-02-12T14:17:53;102637.13;;;8.72;100.00
7168;BME280;3625;51.762;14.320;2023-02-12T14:20:33;102553.41;;;8.22;100.00
7168;BME280;3625;51.762;14.320;2023-02-12T14:23:24;102825.00;;;9.78;100.00
7168;BME280;3625;51.762;14.320;2023-02-12T14:26:03;102547.03;;;8.11;100.00
7168;BME280;3625;51.762;14.320;2023-02-12T14:28:59;102702.72;;;8.95;100.00
7168;BME280;3625;51.762;14.320;2023-02-12T14:31:39;102834.56;;;9.70;100.00
7168;BME280;3625;51.762;14.320;2023-02-12T14:34:38;102834.59;;;9.72;100.00
7168;BME280;3625;51.762;14.320;2023-02-12T14:37:16;102836.34;;;9.71;100.00
7168;BME280;3625;51.762;14.320;2023-02-12T14:39:46;102831.00;;;9.68;100.00
7168;BME280;3625;51.762;14.320;2023-02-12T14:42:51;102795.25;;;9.42;100.00
7168;BME280;3625;51.762;14.320;2023-02-12T14:45:33;102830.78;;;9.58;100.00
7168;BME280;3625;51.762;14.320;2023-02-12T14:48:04;102428.44;;;7.32;100.00
7168;BME280;3625;51.762;14.320;2023-02-12T14:50:43;102542.97;;;7.88;100.00
7168;BME280;3625;51.762;14.320;2023-02-12T14:53:34;102829.72;;;9.48;100.00
7168;BME280;3625;51.762;14.320;2023-02-12T14:56:22;102827.97;;;9.49;100.00
7168;BME280;3625;51.762;14.320;2023-02-12T14:59:03;102590.88;;;8.08;100.00
7168;BME280;3625;51.762;14.320;2023-02-12T15:01:37;102839.22;;;9.40;100.00
7168;BME280;3625;51.762;14.320;2023-02-12T15:04:18;102497.13;;;7.41;100.00
7168;BME280;3625;51.762;14.320;2023-02-12T15:07:00;102508.00;;;7.56;100.00
7168;BME280;3625;51.762;14.320;2023-02-12T15:09:39;102833.09;;;9.41;100.00
7168;BME280;3625;51.762;14.320;2023-02-12T15:12:20;102712.66;;;8.66;100.00
7168;BME280;3625;51.762;14.320;2023-02-12T15:15:20;102732.97;;;8.69;100.00
7168;BME280;3625;51.762;14.320;2023-02-12T15:18:06;102828.16;;;9.17;100.00
7168;BME280;3625;51.762;14.320;2023-02-12T15:20:49;102602.56;;;7.81;100.00
7168;BME280;3625;51.762;14.320;2023-02-12T15:23:40;102686.03;;;8.18;100.00
7168;BME280;3625;51.762;14.320;2023-02-12T15:26:21;102640.44;;;7.85;100.00
7168;BME280;3625;51.762;14.320;2023-02-12T15:28:53;102765.00;;;8.48;100.00
7168;BME280;3625;51.762;14.320;2023-02-12T15:31:27;102515.31;;;6.96;100.00
7168;BME280;3625;51.762;14.320;2023-02-12T15:34:28;102734.97;;;8.07;100.00
7168;BME280;3625;51.762;14.320;2023-02-12T15:37:16;102830.38;;;8.60;100.00
7168;BME280;3625;51.762;14.320;2023-02-12T15:39:53;102824.06;;;8.53;100.00
7168;BME280;3625;51.762;14.320;2023-02-12T15:42:31;102734.69;;;7.95;100.00
7168;BME280;3625;51.762;14.320;2023-02-12T15:45:23;102618.53;;;7.18;100.00
7168;BME280;3625;51.762;14.320;2023-02-12T15:48:10;102838.94;;;8.50;100.00
7168;BME280;3625;51.762;14.320;2023-02-12T15:50:50;102824.75;;;8.45;100.00
7168;BME280;3625;51.762;14.320;2023-02-12T15:53:35;102831.72;;;8.43;100.00
7168;BME280;3625;51.762;14.320;2023-02-12T15:56:24;102830.72;;;8.38;100.00
7168;BME280;3625;51.762;14.320;2023-02-12T15:59:02;102835.81;;;8.31;100.00
7168;BME280;3625;51.762;14.320;2023-02-12T16:01:34;102636.16;;;7.21;100.00
7168;BME280;3625;51.762;14.320;2023-02-12T16:04:07;102685.94;;;7.45;100.00
7168;BME280;3625;51.762;14.320;2023-02-12T16:06:42;102826.88;;;8.26;100.00
7168;BME280;3625;51.762;14.320;2023-02-12T16:09:17;102618.09;;;7.02;100.00
7168;BME280;3625;51.762;14.320;2023-02-12T16:11:53;102825.75;;;8.17;100.00
7168;BME280;3625;51.762;14.320;2023-02-12T16:14:29;102755.19;;;7.72;100.00
7168;BME280;3625;51.762;14.320;2023-02-12T16:17:28;102534.13;;;6.45;100.00
7168;BME280;3625;51.762;14.320;2023-02-12T16:20:00;102680.00;;;7.19;100.00
7168;BME280;3625;51.762;14.320;2023-02-12T16:22:38;102464.34;;;5.95;100.00
7168;BME280;3625;51.762;14.320;2023-02-12T16:25:19;102775.97;;;7.62;100.00
7168;BME280;3625;51.762;14.320;2023-02-12T16:27:58;102835.13;;;8.04;100.00
7168;BME280;3625;51.762;14.320;2023-02-12T16:30:42;102851.78;;;8.03;100.00
7168;BME280;3625;51.762;14.320;2023-02-12T16:33:39;102857.91;;;8.02;100.00
7168;BME280;3625;51.762;14.320;2023-02-12T16:36:29;102728.47;;;7.27;100.00
7168;BME280;3625;51.762;14.320;2023-02-12T16:42:59;102668.25;;;6.76;100.00
7168;BME280;3625;51.762;14.320;2023-02-12T16:45:42;102858.53;;;7.93;100.00
7168;BME280;3625;51.762;14.320;2023-02-12T16:48:21;102849.59;;;7.87;100.00
7168;BME280;3625;51.762;14.320;2023-02-12T16:51:02;102860.94;;;7.84;100.00
7168;BME280;3625;51.762;14.320;2023-02-12T16:53:35;102863.47;;;7.81;100.00
7168;BME280;3625;51.762;14.320;2023-02-12T16:56:17;102873.06;;;7.79;100.00
7168;BME280;3625;51.762;14.320;2023-02-12T16:59:25;102868.66;;;7.78;100.00
7168;BME280;3625;51.762;14.320;2023-02-12T17:02:36;102870.44;;;7.79;100.00
7168;BME280;3625;51.762;14.320;2023-02-12T17:05:09;102864.25;;;7.79;100.00
7168;BME280;3625;51.762;14.320;2023-02-12T17:07:42;102872.16;;;7.79;100.00
7168;BME280;3625;51.762;14.320;2023-02-12T17:10:12;102877.44;;;7.77;100.00
7168;BME280;3625;51.762;14.320;2023-02-12T17:12:45;102884.47;;;7.78;100.00
7168;BME280;3625;51.762;14.320;2023-02-12T17:15:39;102575.81;;;6.03;100.00
7168;BME280;3625;51.762;14.320;2023-02-12T17:18:13;102880.91;;;7.76;100.00
7168;BME280;3625;51.762;14.320;2023-02-12T17:20:50;102576.63;;;6.00;100.00
7168;BME280;3625;51.762;14.320;2023-02-12T17:23:27;102898.47;;;7.76;100.00
7168;BME280;3625;51.762;14.320;2023-02-12T17:25:57;102886.97;;;7.74;100.00
7168;BME280;3625;51.762;14.320;2023-02-12T17:28:27;102899.19;;;7.72;100.00
7168;BME280;3625;51.762;14.320;2023-02-12T17:30:56;102902.66;;;7.69;100.00
7168;BME280;3625;51.762;14.320;2023-02-12T17:33:36;102901.78;;;7.69;100.00
7168;BME280;3625;51.762;14.320;2023-02-12T17:39:41;102572.44;;;5.80;100.00
7168;BME280;3625;51.762;14.320;2023-02-12T17:41:24;102593.22;;;5.99;100.00
7168;BME280;3625;51.762;14.320;2023-02-12T17:44:47;102899.09;;;7.67;100.00
7168;BME280;3625;51.762;14.320;2023-02-12T17:47:38;102893.81;;;7.67;100.00
7168;BME280;3625;51.762;14.320;2023-02-12T17:50:13;102848.13;;;7.37;100.00
7168;BME280;3625;51.762;14.320;2023-02-12T17:52:45;102898.09;;;7.64;100.00
7168;BME280;3625;51.762;14.320;2023-02-12T17:55:38;102892.75;;;7.61;100.00
7168;BME280;3625;51.762;14.320;2023-02-12T17:58:16;102886.59;;;7.62;100.00
7168;BME280;3625;51.762;14.320;2023-02-12T18:00:59;102888.28;;;7.58;100.00
7168;BME280;3625;51.762;14.320;2023-02-12T18:03:31;102889.97;;;7.56;100.00
7168;BME280;3625;51.762;14.320;2023-02-12T18:06:02;102888.97;;;7.52;100.00
7168;BME280;3625;51.762;14.320;2023-02-12T18:08:37;102895.13;;;7.51;100.00
7168;BME280;3625;51.762;14.320;2023-02-12T18:11:18;102805.06;;;7.05;100.00
7168;BME280;3625;51.762;14.320;2023-02-12T18:17:24;102896.81;;;7.49;100.00
7168;BME280;3625;51.762;14.320;2023-02-12T18:20:12;102895.97;;;7.50;100.00
7168;BME280;3625;51.762;14.320;2023-02-12T18:22:44;102891.53;;;7.49;100.00
7168;BME280;3625;51.762;14.320;2023-02-12T18:25:15;102902.91;;;7.48;100.00
7168;BME280;3625;51.762;14.320;2023-02-12T18:27:46;102891.50;;;7.48;100.00
7168;BME280;3625;51.762;14.320;2023-02-12T18:30:22;102896.75;;;7.48;100.00
7168;BME280;3625;51.762;14.320;2023-02-12T18:32:52;102894.91;;;7.45;100.00
7168;BME280;3625;51.762;14.320;2023-02-12T18:35:24;102891.31;;;7.42;100.00
7168;BME280;3625;51.762;14.320;2023-02-12T18:37:54;102893.06;;;7.41;100.00
7168;BME280;3625;51.762;14.320;2023-02-12T18:40:44;102891.38;;;7.43;100.00
7168;BME280;3625;51.762;14.320;2023-02-12T18:43:13;102895.75;;;7.43;100.00
7168;BME280;3625;51.762;14.320;2023-02-12T18:45:43;102893.06;;;7.41;100.00
7168;BME280;3625;51.762;14.320;2023-02-12T18:48:19;102886.94;;;7.42;100.00
7168;BME280;3625;51.762;14.320;2023-02-12T18:50:48;102890.38;;;7.40;100.00
7168;BME280;3625;51.762;14.320;2023-02-12T18:53:26;102878.94;;;7.39;100.00
7168;BME280;3625;51.762;14.320;2023-02-12T18:56:01;102889.56;;;7.42;100.00
7168;BME280;3625;51.762;14.320;2023-02-12T18:58:33;102890.41;;;7.41;100.00
7168;BME280;3625;51.762;14.320;2023-02-12T19:01:12;102792.97;;;6.81;100.00